Terminal Aerodrome Forecast
Issued by NWS Hastings, NE

Home | Current Version | Previous Version | Text Only | Print | Product List | Glossary On
Versions: 1 2 3 4 5 6 7 8 9 10 11 12 13 14 15 16 17 18 19 20
000
FTUS45 KGID 292340
TAFEAR
TAF
KEAR 292340Z 3000/3024 17006KT P6SM SCT250
     FM300900 20005KT 5SM BR SCT006
     FM301100 20003KT 3SM BR BKN006
     FM301400 19010KT P6SM SCT250
      AMD LTD TO CLD VIS AND WIND=

USA.gov is the U.S. government's official web portal to all federal, state and local government web resources and services.